Terminal Aerodrome Forecast
Issued by NWS Melbourne, FL

Home | Current Version | Previous Version | Text Only | Print | Product List | Glossary On
Versions: 1 2 3 4 5 6 7 8 9 10 11 12 13 14 15 16
000
FTUS42 KMLB 211100
TAFMLB
TAF
KMLB 211137Z 2112/2212 VRB02KT P6SM BKN100
     FM211400 16004KT P6SM OVC080
     FM211800 15008KT P6SM SCT030 OVC060
     FM220200 18004KT P6SM SCT020 OVC040
     FM220800 VRB03KT P6SM VCSH BKN020 OVC040=

USA.gov is the U.S. government's official web portal to all federal, state and local government web resources and services.